Time;durP1;ratioP1;P1;durP2;ratioP2;P2;SDS_P1;SDS_P2;PMS_P1;PMS_P2;Temp;Humidity;BMP_temperature;BMP_pressure;BME280_temperature;BME280_humidity;BME280_pressure;Samples;Min_cycle;Max_cycle;Signal;HPM_P1;HPM_P2
2023/05/09 00:01:30;;;;;;;7.22;2.97;;;;;;;8.03;77.11;101201.69;5547963;32;34054;-65
2023/05/09 00:04:34;;;;;;;4.93;2.92;;;;;;;8.08;76.49;101194.22;5548154;32;33919;-66
2023/05/09 00:07:37;;;;;;;7.18;3.30;;;;;;;8.18;76.32;101200.38;5547798;32;33607;-64
2023/05/09 00:10:39;;;;;;;5.47;2.80;;;;;;;8.19;77.20;101194.13;5546976;32;33932;-65
2023/05/09 00:13:43;;;;;;;3.55;2.60;;;;;;;8.23;75.87;101198.16;5547757;32;34595;-66
2023/05/09 00:16:45;;;;;;;4.97;2.87;;;;;;;8.24;76.15;101195.38;5547449;32;33983;-65
2023/05/09 00:19:49;;;;;;;5.43;2.90;;;;;;;8.17;76.29;101188.12;5547622;32;34554;-65
2023/05/09 00:22:54;;;;;;;3.75;2.83;;;;;;;8.11;76.25;101188.66;5547619;32;33693;-65
2023/05/09 00:25:57;;;;;;;4.95;2.95;;;;;;;8.02;77.08;101186.81;5547634;32;33942;-65
2023/05/09 00:28:59;;;;;;;5.12;3.25;;;;;;;7.98;78.31;101186.25;5547594;32;33712;-66
2023/05/09 00:32:02;;;;;;;5.12;3.20;;;;;;;7.97;nan;101184.56;5547463;32;33760;-65
2023/05/09 00:35:06;;;;;;;5.50;2.92;;;;;;;7.92;78.60;101185.91;5547435;32;33667;-65
2023/05/09 00:38:09;;;;;;;3.58;2.97;;;;;;;7.91;79.01;101181.59;5547409;32;33628;-65
2023/05/09 00:41:12;;;;;;;3.37;2.67;;;;;;;7.86;78.99;101177.56;5547153;32;34323;-65
2023/05/09 00:44:14;;;;;;;5.57;3.10;;;;;;;7.82;79.41;101175.31;5547452;32;33886;-65
2023/05/09 00:47:17;;;;;;;5.18;3.10;;;;;;;7.80;79.26;101180.72;5547152;32;35010;-65
2023/05/09 00:50:20;;;;;;;4.75;3.37;;;;;;;7.73;80.11;101184.84;5546967;32;35325;-66
2023/05/09 00:53:24;;;;;;;5.25;3.25;;;;;;;7.70;80.59;101182.44;5547166;32;34958;-65
2023/05/09 00:56:26;;;;;;;4.12;2.97;;;;;;;7.73;80.80;101182.22;5546910;32;34757;-65
2023/05/09 00:59:30;;;;;;;5.55;3.30;;;;;;;7.67;81.48;101179.25;5547022;32;34586;-65
2023/05/09 01:02:33;;;;;;;5.53;3.12;;;;;;;7.68;80.83;101175.63;5547266;32;34524;-65
2023/05/09 01:05:48;;;;;;;4.70;3.15;;;;;;;7.63;81.66;101175.19;5546864;32;34797;-65
2023/05/09 01:09:16;;;;;;;5.22;3.15;;;;;;;7.55;81.91;101182.94;5546105;32;33660;-65
2023/05/09 01:12:24;;;;;;;5.32;3.30;;;;;;;7.52;82.17;101181.38;5546876;32;34584;-65
2023/05/09 01:15:33;;;;;;;4.07;3.03;;;;;;;7.53;82.26;101182.22;5546968;32;33963;-65
2023/05/09 01:18:50;;;;;;;5.35;3.30;;;;;;;7.48;83.38;101184.38;5546250;32;33808;-66
2023/05/09 01:21:55;;;;;;;5.47;3.70;;;;;;;7.40;84.12;101177.97;5546599;32;34367;-65
2023/05/09 01:25:23;;;;;;;6.30;3.50;;;;;;;7.47;84.18;101180.91;5546926;32;33864;-65
2023/05/09 01:28:53;;;;;;;6.85;3.20;;;;;;;7.36;85.51;101178.31;5546503;32;33898;-65
2023/05/09 01:31:59;;;;;;;6.97;3.50;;;;;;;7.42;84.99;101183.09;5546430;32;34556;-66
2023/05/09 01:35:04;;;;;;;6.10;3.28;;;;;;;7.30;85.85;101177.06;5546350;32;33916;-66
2023/05/09 01:38:12;;;;;;;5.07;3.42;;;;;;;7.23;87.10;101177.66;5546389;32;33583;-66
2023/05/09 01:41:16;;;;;;;6.10;3.67;;;;;;;7.25;86.44;101184.50;5545477;32;33796;-66
2023/05/09 01:44:21;;;;;;;4.68;3.37;;;;;;;7.27;86.54;101176.44;5546367;32;34116;-66
2023/05/09 01:47:25;;;;;;;7.65;3.70;;;;;;;7.32;86.03;101177.75;5546455;32;33785;-67
2023/05/09 01:50:31;;;;;;;7.30;3.62;;;;;;;7.25;86.33;101173.97;5545953;32;35032;-66
2023/05/09 01:53:34;;;;;;;8.07;3.90;;;;;;;7.18;87.06;101170.13;5545459;32;33947;-66
2023/05/09 01:56:39;;;;;;;5.90;3.58;;;;;;;7.07;88.17;101167.53;5549025;32;33677;-66
2023/05/09 01:59:44;;;;;;;6.82;3.75;;;;;;;7.14;87.98;101171.34;5549248;32;33965;-66
2023/05/09 02:02:48;;;;;;;5.32;3.72;;;;;;;7.11;87.71;101168.16;5549033;32;34491;-66
2023/05/09 02:05:52;;;;;;;6.35;3.87;;;;;;;7.13;87.52;101174.12;5548050;32;33725;-66
2023/05/09 02:08:55;;;;;;;5.50;3.70;;;;;;;7.11;87.56;101168.97;5548850;32;33947;-66
2023/05/09 02:12:00;;;;;;;5.62;4.10;;;;;;;7.05;88.37;101160.72;5548899;32;33862;-67
2023/05/09 02:15:05;;;;;;;5.97;3.60;;;;;;;6.97;89.05;101156.91;5548865;32;33602;-66
2023/05/09 02:18:08;;;;;;;7.20;3.78;;;;;;;6.94;89.53;101156.31;5548800;32;33984;-66
2023/05/09 02:21:11;;;;;;;7.32;4.10;;;;;;;6.92;90.52;101164.34;5548688;32;33911;-66
2023/05/09 02:24:14;;;;;;;6.80;4.03;;;;;;;6.90;91.20;101158.38;5548770;32;33747;-65
2023/05/09 02:27:19;;;;;;;6.65;4.35;;;;;;;6.96;91.57;101146.50;5547969;32;34368;-66
2023/05/09 02:30:26;;;;;;;9.35;4.35;;;;;;;7.06;91.93;101155.34;5547836;32;33562;-66
2023/05/09 02:33:30;;;;;;;8.25;4.35;;;;;;;7.03;93.11;101150.28;5548609;32;33839;-65
2023/05/09 02:36:33;;;;;;;5.97;4.10;;;;;;;7.04;94.13;101151.13;5548520;32;34987;-67
2023/05/09 02:39:36;;;;;;;11.18;4.70;;;;;;;7.01;95.20;101154.88;5548606;32;34620;-66
2023/05/09 02:42:39;;;;;;;5.57;4.20;;;;;;;7.05;95.64;101148.38;5547719;32;33778;-66
2023/05/09 02:45:42;;;;;;;8.25;4.62;;;;;;;7.04;96.67;101143.22;5548721;32;33559;-66
2023/05/09 02:48:45;;;;;;;7.05;4.87;;;;;;;7.03;97.69;101139.72;5547883;32;33775;-65
2023/05/09 02:51:48;;;;;;;6.57;4.40;;;;;;;7.04;98.22;101145.84;5548263;32;34477;-65
2023/05/09 02:54:50;;;;;;;8.38;4.50;;;;;;;6.98;98.98;101148.03;5548505;32;33908;-66
2023/05/09 02:57:53;;;;;;;7.53;4.60;;;;;;;6.99;99.51;101146.22;5548303;32;33890;-66
2023/05/09 03:01:14;;;;;;;5.62;4.53;;;;;;;6.94;100.00;101145.78;5548471;32;34587;-66
2023/05/09 03:04:18;;;;;;;9.15;5.00;;;;;;;6.93;100.00;101147.56;5547501;32;34317;-65
2023/05/09 03:07:21;;;;;;;9.55;5.00;;;;;;;6.87;100.00;101148.06;5548502;32;34579;-66
2023/05/09 03:10:24;;;;;;;7.72;4.80;;;;;;;6.91;100.00;101146.88;5548659;32;34245;-65
2023/05/09 03:13:26;;;;;;;10.88;4.80;;;;;;;6.90;99.61;101144.34;5548308;32;34765;-65
2023/05/09 03:16:31;;;;;;;7.97;5.07;;;;;;;6.92;99.30;101145.06;5548558;32;33586;-66
2023/05/09 03:19:34;;;;;;;8.55;4.57;;;;;;;6.85;99.10;101149.16;5548574;32;33774;-66
2023/05/09 03:22:37;;;;;;;7.25;4.78;;;;;;;6.83;99.40;101140.53;5548080;32;33771;-65
2023/05/09 03:25:41;;;;;;;7.10;4.72;;;;;;;6.80;99.80;101138.16;5548144;32;33803;-66
2023/05/09 03:28:44;;;;;;;9.68;5.70;;;;;;;6.71;100.00;101128.34;5540924;32;34527;-66
2023/05/09 03:31:47;;;;;;;9.35;4.82;;;;;;;6.67;100.00;101138.31;5544415;32;34534;-66
2023/05/09 03:34:50;;;;;;;17.05;4.47;;;;;;;6.67;100.00;101145.37;5548176;32;33660;-66
2023/05/09 03:37:53;;;;;;;7.00;4.93;;;;;;;6.62;100.00;101150.19;5548201;32;35113;-66
2023/05/09 03:40:56;;;;;;;7.78;4.72;;;;;;;6.70;100.00;101147.78;5547130;32;33820;-67
2023/05/09 03:43:59;;;;;;;7.43;4.25;;;;;;;6.66;100.00;101148.97;5548213;32;33961;-66
2023/05/09 03:47:02;;;;;;;6.93;4.45;;;;;;;6.69;100.00;101146.94;5540610;32;33666;-66
2023/05/09 03:50:06;;;;;;;9.50;4.85;;;;;;;6.75;100.00;101150.88;5540481;32;33728;-66
2023/05/09 03:53:10;;;;;;;7.60;4.45;;;;;;;6.86;100.00;101159.59;5541428;32;34142;-66
2023/05/09 03:56:13;;;;;;;7.15;4.95;;;;;;;6.89;99.22;101167.25;5532873;32;35229;-67
2023/05/09 03:59:16;;;;;;;6.90;4.70;;;;;;;6.94;98.53;101164.22;5546592;32;33598;-67
2023/05/09 04:02:19;;;;;;;8.30;4.82;;;;;;;6.96;98.79;101157.88;5547110;32;34908;-69
2023/05/09 04:05:23;;;;;;;7.10;4.15;;;;;;;7.04;97.70;101161.69;5536213;32;34424;-66
2023/05/09 04:08:26;;;;;;;6.18;4.65;;;;;;;7.09;97.89;101160.34;5546766;32;34844;-67
2023/05/09 04:11:29;;;;;;;8.73;4.30;;;;;;;7.15;100.00;101154.56;5545914;32;33830;-67
2023/05/09 04:14:32;;;;;;;7.03;4.47;;;;;;;7.18;98.59;101156.94;5535160;32;33922;-67
2023/05/09 04:17:35;;;;;;;9.18;4.45;;;;;;;7.24;97.82;101161.72;5546113;32;34864;-67
2023/05/09 04:20:38;;;;;;;8.02;4.43;;;;;;;7.29;97.39;101150.78;5546864;32;33836;-68
2023/05/09 04:23:42;;;;;;;7.70;4.43;;;;;;;7.31;96.96;101157.59;5546115;32;33871;-67
2023/05/09 04:26:45;;;;;;;8.27;4.47;;;;;;;7.36;96.39;101157.19;5547403;32;33622;-68
2023/05/09 04:29:48;;;;;;;7.20;4.40;;;;;;;7.39;95.19;101160.44;5535839;32;33999;-67
2023/05/09 04:32:52;;;;;;;6.70;4.12;;;;;;;7.40;95.51;101159.50;5536478;32;33923;-68
2023/05/09 04:35:56;;;;;;;9.57;4.90;;;;;;;7.47;95.33;101156.31;5547269;32;34716;-67
2023/05/09 04:38:59;;;;;;;7.43;4.30;;;;;;;7.58;94.83;101161.53;5545936;32;33692;-67
2023/05/09 04:42:04;;;;;;;6.87;4.15;;;;;;;7.65;94.14;101165.34;5545848;32;33854;-68
2023/05/09 04:45:07;;;;;;;8.95;4.47;;;;;;;7.63;92.67;101167.25;5547246;32;34571;-67
2023/05/09 04:48:10;;;;;;;6.70;4.37;;;;;;;7.65;92.22;101163.50;5541053;32;33821;-66
2023/05/09 04:51:13;;;;;;;8.43;4.78;;;;;;;7.71;91.25;101170.09;5546568;32;33950;-66
2023/05/09 04:54:16;;;;;;;11.48;4.75;;;;;;;7.78;90.13;101166.81;5546743;32;35024;-67
2023/05/09 04:57:20;;;;;;;9.02;4.20;;;;;;;7.78;89.79;101168.63;5542969;32;33664;-67
2023/05/09 05:00:23;;;;;;;7.07;4.30;;;;;;;7.85;89.47;101157.38;5537828;32;33533;-67
2023/05/09 05:03:26;;;;;;;6.85;4.20;;;;;;;7.95;90.63;101160.06;5538598;32;34532;-68
2023/05/09 05:06:30;;;;;;;5.60;4.15;;;;;;;8.03;86.33;101170.00;5528928;32;33719;-68
2023/05/09 05:09:33;;;;;;;7.22;4.40;;;;;;;8.03;86.40;101162.06;5527342;32;33802;-68
2023/05/09 05:12:36;;;;;;;6.80;4.15;;;;;;;8.09;87.87;101159.72;5527882;32;33810;-68
2023/05/09 05:15:42;;;;;;;5.50;4.45;;;;;;;8.21;86.87;101169.25;5529015;32;34142;-67
2023/05/09 05:18:45;;;;;;;6.85;4.35;;;;;;;8.27;84.85;101168.72;5545875;32;34625;-67
2023/05/09 05:21:48;;;;;;;7.87;4.37;;;;;;;8.36;85.58;101166.25;5540908;32;34331;-68
2023/05/09 05:24:51;;;;;;;8.07;4.12;;;;;;;8.43;84.36;101170.84;5526873;32;35239;-65
2023/05/09 05:27:54;;;;;;;8.05;5.12;;;;;;;8.54;84.32;101170.75;5527581;32;34980;-67
2023/05/09 05:30:57;;;;;;;7.72;4.40;;;;;;;8.66;82.55;101163.56;5547598;32;33710;-68
2023/05/09 05:33:59;;;;;;;8.10;4.22;;;;;;;8.80;83.34;101168.44;5536706;32;34485;-67
2023/05/09 05:37:03;;;;;;;7.32;4.30;;;;;;;8.99;82.45;101167.62;5538387;32;35901;-67
2023/05/09 05:40:07;;;;;;;6.93;4.10;;;;;;;8.98;83.70;101172.09;5547825;32;34665;-67
2023/05/09 05:43:10;;;;;;;5.97;3.92;;;;;;;8.95;80.95;101169.72;5545808;32;33445;-68
2023/05/09 05:46:13;;;;;;;10.88;4.45;;;;;;;9.08;81.62;101162.34;5529226;32;34752;-67
2023/05/09 05:49:17;;;;;;;8.90;4.00;;;;;;;9.36;80.06;101162.47;5528353;32;33779;-66
2023/05/09 05:52:20;;;;;;;8.13;3.92;;;;;;;9.39;78.34;101163.00;5540469;32;33805;-66
2023/05/09 05:55:23;;;;;;;8.32;4.05;;;;;;;9.50;77.35;101162.03;5533114;32;35004;-67
2023/05/09 05:58:25;;;;;;;12.20;3.67;;;;;;;9.50;76.92;101165.50;5534395;32;33962;-67
2023/05/09 06:01:28;;;;;;;6.07;3.92;;;;;;;9.52;76.76;101166.22;5536216;32;33725;-66
2023/05/09 06:04:32;;;;;;;12.65;3.78;;;;;;;9.56;76.87;101157.00;5529128;32;33659;-67
2023/05/09 06:07:35;;;;;;;6.43;3.70;;;;;;;9.71;77.76;101164.50;5534364;32;34595;-67
2023/05/09 06:10:38;;;;;;;9.05;3.87;;;;;;;9.80;76.43;101163.66;5533718;32;34342;-67
2023/05/09 06:13:41;;;;;;;7.75;3.70;;;;;;;10.03;73.65;101165.78;5536314;32;33987;-66
2023/05/09 06:16:45;;;;;;;5.97;3.80;;;;;;;10.15;73.71;101166.47;5533339;32;34673;-67
2023/05/09 06:19:48;;;;;;;6.22;3.80;;;;;;;10.26;74.38;101168.94;5551423;32;33375;-65
2023/05/09 06:22:51;;;;;;;6.68;3.45;;;;;;;10.53;73.36;101169.94;5546202;32;33931;-67
2023/05/09 06:25:54;;;;;;;6.18;3.70;;;;;;;10.62;71.92;101164.56;5544431;32;34276;-69
2023/05/09 06:28:57;;;;;;;11.68;4.10;;;;;;;10.58;72.46;101157.91;5528909;32;33985;-66
2023/05/09 06:31:59;;;;;;;8.77;3.15;;;;;;;10.67;71.64;101161.47;5542713;32;34102;-66
2023/05/09 06:35:02;;;;;;;9.18;3.05;;;;;;;10.61;71.15;101156.75;5529531;32;33966;-67
2023/05/09 06:38:05;;;;;;;13.25;3.30;;;;;;;10.77;71.39;101155.13;5531668;32;33898;-67
2023/05/09 06:41:08;;;;;;;8.82;3.90;;;;;;;11.08;69.91;101155.59;5533639;32;33844;-67
2023/05/09 06:44:11;;;;;;;11.85;3.12;;;;;;;11.03;69.71;101144.59;5532508;32;33991;-66
2023/05/09 06:47:14;;;;;;;8.98;2.12;;;;;;;11.46;67.87;101148.28;5537004;32;33763;-65
2023/05/09 06:50:16;;;;;;;4.10;2.08;;;;;;;11.84;64.30;101147.91;5538059;32;33779;-67
2023/05/09 06:53:20;;;;;;;3.00;1.62;;;;;;;12.06;62.82;101141.19;5527840;32;33967;-65
2023/05/09 06:56:24;;;;;;;5.60;1.67;;;;;;;12.02;60.73;101140.69;5538045;32;34223;-65
2023/05/09 06:59:27;;;;;;;4.75;1.70;;;;;;;12.33;60.35;101148.97;5536322;32;33874;-66
2023/05/09 07:02:29;;;;;;;5.90;1.48;;;;;;;12.45;59.74;101146.84;5537292;32;33887;-68
2023/05/09 07:05:33;;;;;;;4.93;1.60;;;;;;;12.88;58.08;101135.13;5546511;32;33645;-68
2023/05/09 07:08:36;;;;;;;3.47;1.60;;;;;;;13.03;57.77;101128.16;5547028;32;34481;-66
2023/05/09 07:11:38;;;;;;;5.78;1.40;;;;;;;13.40;56.76;101125.88;5548216;32;34282;-66
2023/05/09 07:14:41;;;;;;;3.47;1.30;;;;;;;13.84;55.46;101125.47;5545172;32;34043;-65
2023/05/09 07:17:44;;;;;;;2.33;1.40;;;;;;;14.40;53.25;101136.97;5532489;32;33427;-65
2023/05/09 07:20:46;;;;;;;2.25;1.40;;;;;;;14.47;52.43;101135.28;5546498;32;33927;-68
2023/05/09 07:23:49;;;;;;;4.00;1.50;;;;;;;15.94;48.66;101120.56;5547765;32;33725;-69
2023/05/09 07:26:52;;;;;;;4.30;1.30;;;;;;;16.79;46.92;101118.16;5544712;32;33807;-68
2023/05/09 07:29:55;;;;;;;4.95;1.58;;;;;;;15.99;47.27;101110.97;5547541;32;34045;-66
2023/05/09 07:32:57;;;;;;;7.18;2.10;;;;;;;15.95;47.75;101108.84;5532954;32;33458;-68
2023/05/09 07:36:00;;;;;;;8.00;1.55;;;;;;;17.49;44.40;101112.78;5539967;32;34922;-68
2023/05/09 07:39:03;;;;;;;4.03;1.37;;;;;;;16.01;47.80;101106.25;5540471;32;34485;-67
2023/05/09 07:42:07;;;;;;;8.73;1.52;;;;;;;16.88;45.41;101107.13;5528331;32;33896;-67
2023/05/09 07:45:09;;;;;;;2.08;1.10;;;;;;;17.65;45.39;101106.34;5534258;32;35072;-68
2023/05/09 07:48:12;;;;;;;5.45;1.20;;;;;;;18.06;43.04;101106.34;5534561;32;133181;-69
2023/05/09 07:51:15;;;;;;;4.90;1.30;;;;;;;17.07;44.74;101086.03;5546537;32;33840;-68
2023/05/09 07:54:18;;;;;;;5.62;1.30;;;;;;;17.05;44.98;101091.59;5533011;32;33823;-69
2023/05/09 07:57:21;;;;;;;5.62;1.08;;;;;;;17.07;44.56;101086.03;5528408;32;34134;-73
2023/05/09 08:00:24;;;;;;;2.45;0.90;;;;;;;18.38;42.80;101084.19;5529865;32;34390;-69
2023/05/09 08:03:27;;;;;;;8.68;1.15;;;;;;;18.55;41.60;101090.06;5528878;32;34617;-70
2023/05/09 08:06:30;;;;;;;3.50;0.95;;;;;;;20.60;38.36;101078.84;5527030;32;33947;-69
2023/05/09 08:09:33;;;;;;;2.17;0.80;;;;;;;20.97;37.29;101077.16;5527287;32;35238;-70
2023/05/09 08:12:35;;;;;;;1.17;0.77;;;;;;;21.93;35.22;101076.72;5542738;32;34380;-70
2023/05/09 08:15:38;;;;;;;7.20;1.33;;;;;;;21.17;35.60;101068.94;5546100;32;33707;-68
2023/05/09 08:18:41;;;;;;;4.05;1.10;;;;;;;19.65;38.46;101065.31;5546966;32;33800;-69
2023/05/09 08:21:44;;;;;;;3.22;1.02;;;;;;;18.97;39.60;101076.31;5544131;32;34339;-69
2023/05/09 08:24:47;;;;;;;3.62;1.10;;;;;;;20.72;36.55;101074.41;5527958;32;33689;-70
2023/05/09 08:27:50;;;;;;;5.78;0.90;;;;;;;19.81;37.68;101057.59;5538229;32;35018;-70
2023/05/09 08:30:55;;;;;;;5.18;1.65;;;;;;;20.18;38.35;101055.22;5536706;32;34403;-71
2023/05/09 08:33:58;;;;;;;4.82;1.20;;;;;;;20.28;37.05;101053.69;5527944;32;34205;-69
2023/05/09 08:37:01;;;;;;;7.93;1.80;;;;;;;20.89;35.76;101061.25;5530988;32;33207;-68
2023/05/09 08:40:08;;;;;;;4.03;1.20;;;;;;;19.40;38.17;101060.56;5538880;32;34856;-70
2023/05/09 08:43:13;;;;;;;2.95;0.90;;;;;;;18.74;39.84;101046.28;5527199;32;33485;-69
2023/05/09 08:46:17;;;;;;;6.03;1.17;;;;;;;17.93;41.39;101049.91;5538625;32;33946;-71
2023/05/09 08:49:20;;;;;;;2.17;0.80;;;;;;;18.35;41.57;101051.56;5546101;32;34052;-70
2023/05/09 08:52:23;;;;;;;3.47;0.93;;;;;;;20.49;37.13;101049.06;5539686;32;33577;-71
2023/05/09 08:55:27;;;;;;;3.15;1.00;;;;;;;20.90;36.04;101041.31;5527998;32;33835;-71
2023/05/09 08:58:30;;;;;;;4.05;0.80;;;;;;;20.92;36.13;101049.16;5528278;32;34230;-68
2023/05/09 09:01:36;;;;;;;4.72;1.25;;;;;;;19.67;38.66;101036.31;5542508;32;32309;-69
2023/05/09 09:04:39;;;;;;;2.15;0.70;;;;;;;20.14;38.28;101035.12;5529284;32;34641;-71
2023/05/09 09:07:43;;;;;;;3.80;0.80;;;;;;;22.55;32.61;101043.06;5547555;32;33725;-70
2023/05/09 09:10:47;;;;;;;2.40;0.80;;;;;;;22.45;32.61;101043.63;5547565;32;34711;-69
2023/05/09 09:13:53;;;;;;;4.97;0.80;;;;;;;25.21;29.28;101028.44;5529429;32;32260;-70
2023/05/09 09:16:57;;;;;;;6.03;0.90;;;;;;;24.16;30.19;101023.53;5534222;32;33643;-70
2023/05/09 09:20:04;;;;;;;2.25;0.70;;;;;;;23.02;30.42;101027.78;5548864;32;34638;-69
2023/05/09 09:23:09;;;;;;;4.37;0.95;;;;;;;22.12;32.38;101021.62;5536505;32;33878;-70
2023/05/09 09:26:12;;;;;;;5.60;1.00;;;;;;;22.68;32.25;101032.06;5516094;32;34244;-72
2023/05/09 09:29:17;;;;;;;2.35;0.95;;;;;;;24.79;29.13;101020.66;5529474;32;34008;-69
2023/05/09 09:32:31;;;;;;;3.85;0.70;;;;;;;22.96;30.43;101034.13;5539105;32;33833;-71
2023/05/09 09:35:38;;;;;;;2.42;0.90;;;;;;;21.69;32.26;101027.09;5548683;32;34814;-71
2023/05/09 09:38:44;;;;;;;15.13;1.60;;;;;;;20.67;34.71;101008.72;5548332;32;34010;-70
2023/05/09 09:41:47;;;;;;;4.37;1.15;;;;;;;24.39;29.71;101023.50;5546653;32;33834;-70
2023/05/09 09:44:56;;;;;;;6.90;0.80;;;;;;;26.21;27.06;101031.72;5554581;32;34456;-69
2023/05/09 09:48:06;;;;;;;1.77;0.68;;;;;;;25.88;26.67;101034.56;5554498;32;34015;-70
2023/05/09 09:51:10;;;;;;;3.22;0.90;;;;;;;23.30;30.23;101013.56;5548776;32;34264;-69
2023/05/09 09:54:13;;;;;;;4.80;0.90;;;;;;;25.76;28.25;101023.81;5556131;32;34137;-71
2023/05/09 09:57:37;;;;;;;0.62;0.52;;;;;;;25.87;26.33;101025.59;5533568;32;33951;-70
2023/05/09 10:00:40;;;;;;;1.80;0.75;;;;;;;27.14;24.59;101016.00;5539468;32;33847;-71
2023/05/09 10:03:45;;;;;;;1.50;0.60;;;;;;;27.57;24.90;101021.22;5549148;32;33768;-71
2023/05/09 10:06:57;;;;;;;1.25;0.70;;;;;;;28.45;23.49;101019.38;5536942;32;33687;-69
2023/05/09 10:10:04;;;;;;;2.15;0.70;;;;;;;28.13;23.86;101004.28;5552429;32;33928;-71
2023/05/09 10:13:10;;;;;;;8.52;1.00;;;;;;;28.27;24.19;101003.47;5545070;32;33265;-72
2023/05/09 10:16:16;;;;;;;1.05;0.80;;;;;;;28.89;23.42;100997.84;5547811;32;33901;-72
2023/05/09 10:19:29;;;;;;;0.95;0.75;;;;;;;29.43;22.50;101002.72;5548541;32;33634;-70
2023/05/09 10:22:33;;;;;;;2.35;0.88;;;;;;;27.65;24.64;100996.16;5546282;32;33858;-71
2023/05/09 10:25:45;;;;;;;2.45;1.00;;;;;;;26.72;25.29;100994.94;5548078;32;32538;-72
2023/05/09 10:28:53;;;;;;;4.37;0.80;;;;;;;25.87;26.31;100981.28;5548298;32;33912;-70
2023/05/09 10:31:59;;;;;;;3.10;0.85;;;;;;;24.83;27.76;101000.13;5538212;32;35257;-71
2023/05/09 10:35:05;;;;;;;3.62;1.00;;;;;;;22.82;29.55;101001.06;5545268;32;33764;-70
2023/05/09 10:38:11;;;;;;;2.83;1.00;;;;;;;20.47;33.47;100989.16;5548499;32;34847;-68
2023/05/09 10:41:16;;;;;;;2.70;1.02;;;;;;;20.45;33.83;100988.53;5548143;32;33843;-68
2023/05/09 10:44:22;;;;;;;1.87;1.02;;;;;;;19.45;35.68;100976.56;5547074;32;34257;-70
2023/05/09 10:47:26;;;;;;;1.75;1.00;;;;;;;21.25;33.28;100985.00;5534846;32;34463;-69
2023/05/09 10:50:30;;;;;;;1.73;0.98;;;;;;;20.33;33.20;100972.25;5548154;32;34604;-69
2023/05/09 10:53:47;;;;;;;1.52;0.90;;;;;;;21.54;32.38;100980.75;5548116;32;34058;-68
2023/05/09 10:56:50;;;;;;;5.28;0.70;;;;;;;20.95;32.34;100978.63;5548351;32;35457;-71
2023/05/09 10:59:55;;;;;;;3.00;0.90;;;;;;;20.88;33.24;100984.06;5548079;32;32521;-71
2023/05/09 11:03:05;;;;;;;6.20;0.90;;;;;;;22.41;31.22;100980.22;5547511;32;34096;-69
2023/05/09 11:06:08;;;;;;;1.37;0.90;;;;;;;25.83;27.33;100975.53;5546704;32;34487;-70
2023/05/09 11:09:31;;;;;;;1.05;0.90;;;;;;;25.71;26.85;100974.81;5531035;32;34957;-70
2023/05/09 11:12:52;;;;;;;2.83;1.00;;;;;;;24.67;28.10;100980.06;5530277;32;33824;-70
2023/05/09 11:16:01;;;;;;;2.65;1.10;;;;;;;23.07;29.58;100978.38;5536437;32;33621;-69
2023/05/09 11:19:05;;;;;;;6.72;1.37;;;;;;;25.60;27.75;100967.62;5540439;32;33967;-69
2023/05/09 11:22:16;;;;;;;2.08;1.05;;;;;;;26.25;26.14;100964.84;5547298;32;33888;-70
2023/05/09 11:25:28;;;;;;;5.12;1.02;;;;;;;24.84;28.13;100961.03;5548396;32;33872;-72
2023/05/09 11:28:36;;;;;;;6.45;1.35;;;;;;;24.33;28.97;100955.84;5540858;32;34228;-69
2023/05/09 11:32:06;;;;;;;5.67;1.10;;;;;;;22.84;30.86;100949.44;5528868;32;34930;-70
2023/05/09 11:35:20;;;;;;;3.03;1.20;;;;;;;24.35;28.77;100951.00;5528446;32;33961;-70
2023/05/09 11:38:41;;;;;;;5.40;1.20;;;;;;;24.08;29.71;100932.59;5547569;32;33921;-71
2023/05/09 11:41:50;;;;;;;4.90;1.00;;;;;;;23.86;29.57;100938.94;5530618;32;34592;-69
2023/05/09 11:44:56;;;;;;;4.78;1.00;;;;;;;23.87;29.12;100937.88;5533485;32;33881;-71
2023/05/09 11:48:07;;;;;;;6.10;1.30;;;;;;;23.22;30.14;100925.41;5541589;32;33341;-69
2023/05/09 11:51:18;;;;;;;3.17;0.98;;;;;;;23.23;30.46;100937.91;5531909;32;33671;-70
2023/05/09 11:54:23;;;;;;;12.65;1.30;;;;;;;22.79;29.96;100930.38;5544214;32;33836;-68
2023/05/09 11:57:28;;;;;;;6.03;1.20;;;;;;;22.13;30.12;100931.38;5537513;32;33567;-68
2023/05/09 12:00:30;;;;;;;6.25;1.00;;;;;;;24.33;28.17;100928.72;5528086;32;34647;-68
2023/05/09 12:03:33;;;;;;;1.60;1.02;;;;;;;22.59;30.75;100929.84;5529572;32;33903;-70
2023/05/09 12:06:36;;;;;;;4.40;1.00;;;;;;;22.24;31.06;100925.19;5532483;32;34034;-70
2023/05/09 12:09:39;;;;;;;2.37;1.20;;;;;;;20.36;34.24;100916.03;5528161;32;34849;-69
2023/05/09 12:12:44;;;;;;;3.65;1.00;;;;;;;22.79;31.98;100920.38;5530600;32;35605;-69
2023/05/09 12:15:47;;;;;;;4.22;0.98;;;;;;;22.60;30.64;100910.69;5539332;32;34975;-69
2023/05/09 12:18:53;;;;;;;5.20;1.00;;;;;;;24.21;28.89;100907.91;5528162;32;33929;-72
2023/05/09 12:22:01;;;;;;;5.72;1.20;;;;;;;27.90;24.85;100905.44;5526946;32;33755;-72
2023/05/09 12:25:06;;;;;;;9.88;1.08;;;;;;;27.55;23.54;100905.34;5528205;32;33875;-70
2023/05/09 12:28:09;;;;;;;1.58;0.90;;;;;;;23.46;28.54;100901.03;5527730;32;33965;-70
2023/05/09 12:31:12;;;;;;;2.95;1.10;;;;;;;23.68;28.37;100889.28;5527621;32;33700;-70
2023/05/09 12:34:15;;;;;;;2.75;0.90;;;;;;;27.35;24.87;100895.19;5527150;32;34620;-72
2023/05/09 12:37:18;;;;;;;9.05;0.93;;;;;;;31.21;21.02;100876.34;5526383;32;33996;-70
2023/05/09 12:40:22;;;;;;;3.72;0.90;;;;;;;29.19;22.92;100892.34;5527137;32;34284;-70
2023/05/09 12:43:24;;;;;;;3.05;1.05;;;;;;;29.08;23.50;100885.25;5530853;32;33913;-70
2023/05/09 12:46:27;;;;;;;3.95;0.90;;;;;;;28.38;23.20;100889.69;5546557;32;33922;-70
2023/05/09 12:49:31;;;;;;;1.02;0.90;;;;;;;28.51;24.00;100892.69;5547149;32;35262;-71
2023/05/09 12:52:41;;;;;;;3.85;0.98;;;;;;;29.99;22.34;100887.59;5546981;32;34069;-71
2023/05/09 12:56:10;;;;;;;6.35;1.00;;;;;;;27.40;25.37;100869.84;5547425;32;33673;-70
2023/05/09 12:59:19;;;;;;;4.32;1.10;;;;;;;25.19;27.15;100865.75;5539010;32;33910;-69
2023/05/09 13:02:24;;;;;;;1.97;1.00;;;;;;;23.82;29.00;100860.00;5527318;32;33974;-73
2023/05/09 13:05:27;;;;;;;1.83;0.90;;;;;;;24.39;29.07;100851.81;5527169;32;34684;-71
2023/05/09 13:08:30;;;;;;;2.25;0.80;;;;;;;26.67;26.47;100856.12;5527112;32;35478;-70
2023/05/09 13:11:34;;;;;;;3.40;0.95;;;;;;;28.92;23.07;100847.06;5527405;32;33702;-72
2023/05/09 13:14:36;;;;;;;2.00;1.10;;;;;;;27.23;25.26;100837.34;5530249;32;34513;-69
2023/05/09 13:17:39;;;;;;;3.17;0.90;;;;;;;29.99;22.45;100847.37;5544794;32;34746;-72
2023/05/09 13:20:42;;;;;;;2.47;0.90;;;;;;;29.78;22.71;100845.84;5536664;32;33410;-71
2023/05/09 13:23:45;;;;;;;2.53;1.00;;;;;;;29.50;22.53;100847.37;5529173;32;34479;-69
2023/05/09 13:26:47;;;;;;;2.08;0.90;;;;;;;27.15;24.59;100838.69;5537713;32;33750;-69
2023/05/09 13:29:50;;;;;;;1.35;0.75;;;;;;;26.09;26.32;100837.13;5544813;32;35029;-72
2023/05/09 13:32:53;;;;;;;3.95;1.40;;;;;;;28.58;24.17;100834.28;5548607;32;33978;-70
2023/05/09 13:35:56;;;;;;;2.08;1.00;;;;;;;30.67;21.65;100833.66;5531962;32;34820;-70
2023/05/09 13:38:58;;;;;;;6.53;1.10;;;;;;;30.51;21.50;100843.13;5530940;32;34064;-72
2023/05/09 13:42:02;;;;;;;2.37;1.00;;;;;;;30.00;21.47;100835.34;5532900;32;33734;-72
2023/05/09 13:45:05;;;;;;;3.33;0.90;;;;;;;27.82;24.09;100826.91;5541591;32;33784;-70
2023/05/09 13:48:08;;;;;;;4.95;0.90;;;;;;;26.49;25.79;100820.31;5544471;32;33729;-70
2023/05/09 13:51:11;;;;;;;3.20;1.08;;;;;;;28.45;23.25;100825.56;5542732;32;33835;-68
2023/05/09 13:54:16;;;;;;;7.93;1.02;;;;;;;25.39;27.08;100813.56;5548591;32;33833;-69
2023/05/09 13:57:18;;;;;;;1.58;0.98;;;;;;;22.91;30.45;100810.25;5540947;32;34624;-69
2023/05/09 14:00:24;;;;;;;3.90;0.90;;;;;;;21.02;33.00;100806.72;5534406;32;35232;-68
2023/05/09 14:03:27;;;;;;;3.67;1.10;;;;;;;20.20;34.79;100794.47;5543001;32;33936;-68
2023/05/09 14:06:29;;;;;;;3.47;1.00;;;;;;;20.34;35.70;100804.94;5543584;32;33588;-68
2023/05/09 14:09:38;;;;;;;2.50;0.90;;;;;;;20.38;35.18;100783.78;5531903;32;34242;-69
2023/05/09 14:12:45;;;;;;;3.90;0.90;;;;;;;20.28;35.43;100778.84;5547810;32;33896;-68
2023/05/09 14:15:48;;;;;;;1.37;0.90;;;;;;;21.88;32.96;100784.81;5546825;32;34549;-68
2023/05/09 14:18:51;;;;;;;3.03;0.80;;;;;;;23.77;29.66;100786.75;5541722;32;34050;-68
2023/05/09 14:21:54;;;;;;;3.75;1.12;;;;;;;21.69;32.81;100784.03;5528245;32;34102;-69
2023/05/09 14:24:57;;;;;;;8.50;1.30;;;;;;;20.24;34.60;100779.50;5528693;32;33608;-69